createdAt,value
2018-01-07T00:01:41.764Z,86.57
2018-01-07T00:04:09.258Z,108.25
2018-01-07T00:06:36.712Z,85.97
2018-01-07T00:09:04.184Z,99.90
2018-01-07T00:11:31.677Z,92.70
2018-01-07T00:13:59.155Z,81.87
2018-01-07T00:16:26.630Z,86.20
2018-01-07T00:18:54.100Z,87.65
2018-01-07T00:21:21.583Z,93.20
2018-01-07T00:23:49.074Z,93.28
2018-01-07T00:26:16.558Z,94.43
2018-01-07T00:28:44.029Z,101.62
2018-01-07T00:31:11.497Z,100.00
2018-01-07T00:33:38.998Z,104.50
2018-01-07T00:36:06.460Z,85.93
2018-01-07T00:38:33.920Z,92.43
2018-01-07T00:41:01.415Z,80.82
2018-01-07T00:43:28.881Z,87.30
2018-01-07T00:45:56.355Z,88.25
2018-01-07T00:48:23.837Z,84.75
2018-01-07T00:50:51.300Z,97.28
2018-01-07T00:53:18.792Z,93.93
2018-01-07T00:55:46.300Z,83.45
2018-01-07T00:58:13.793Z,102.40
2018-01-07T01:00:41.276Z,89.53
2018-01-07T01:03:08.769Z,92.35
2018-01-07T01:05:36.237Z,90.25
2018-01-07T01:08:03.713Z,83.25
2018-01-07T01:10:31.188Z,85.00
2018-01-07T01:12:58.660Z,84.70
2018-01-07T01:15:26.193Z,81.80
2018-01-07T01:17:53.698Z,92.07
2018-01-07T01:20:21.195Z,79.90
2018-01-07T01:22:48.619Z,77.28
2018-01-07T01:25:16.147Z,83.95
2018-01-07T01:27:43.627Z,80.95
2018-01-07T01:30:11.121Z,81.68
2018-01-07T01:32:38.601Z,95.70
2018-01-07T01:35:06.094Z,93.55
2018-01-07T01:37:33.577Z,84.00
2018-01-07T01:40:01.084Z,104.87
2018-01-07T01:42:28.557Z,98.40
2018-01-07T01:44:56.025Z,90.57
2018-01-07T01:47:23.519Z,89.15
2018-01-07T01:49:50.990Z,91.47
2018-01-07T01:52:18.456Z,93.03
2018-01-07T01:54:45.932Z,94.18
2018-01-07T01:57:13.403Z,98.62
2018-01-07T01:59:40.879Z,93.80
2018-01-07T02:02:08.352Z,83.62
2018-01-07T02:04:35.830Z,89.68
2018-01-07T02:07:03.297Z,80.93
2018-01-07T02:09:30.798Z,79.28
2018-01-07T02:11:58.288Z,89.47
2018-01-07T02:14:25.756Z,82.10
2018-01-07T02:16:53.248Z,79.10
2018-01-07T02:19:20.709Z,89.32
2018-01-07T02:21:48.190Z,99.05
2018-01-07T02:24:15.688Z,107.12
2018-01-07T02:26:43.155Z,102.20
2018-01-07T02:29:10.631Z,104.28
2018-01-07T02:31:38.187Z,109.37
2018-01-07T02:34:05.655Z,110.93
2018-01-07T02:36:33.198Z,99.53
2018-01-07T02:39:00.683Z,90.68
2018-01-07T02:41:28.137Z,86.78
2018-01-07T02:43:55.598Z,89.25
2018-01-07T02:46:23.074Z,94.97
2018-01-07T02:48:50.560Z,95.60
2018-01-07T02:51:18.048Z,87.97
2018-01-07T02:53:45.533Z,87.72
2018-01-07T02:56:13.017Z,83.95
2018-01-07T02:58:40.508Z,77.18
2018-01-07T03:01:08.004Z,81.97
2018-01-07T03:03:35.469Z,95.85
2018-01-07T03:06:02.948Z,92.72
2018-01-07T03:08:30.473Z,110.18
2018-01-07T03:10:57.951Z,99.60
2018-01-07T03:13:25.443Z,102.82
2018-01-07T03:15:52.944Z,101.70
2018-01-07T03:18:20.431Z,109.95
2018-01-07T03:20:47.906Z,92.05
2018-01-07T03:23:15.376Z,83.97
2018-01-07T03:25:42.854Z,85.45
2018-01-07T03:28:10.322Z,90.50
2018-01-07T03:30:37.806Z,85.15
2018-01-07T03:33:05.292Z,86.25
2018-01-07T03:35:32.765Z,97.65
2018-01-07T03:38:00.258Z,85.55
2018-01-07T03:40:27.724Z,104.97
2018-01-07T03:42:55.205Z,105.72
2018-01-07T03:45:23.516Z,96.93
2018-01-07T03:47:51.000Z,112.62
2018-01-07T03:50:18.487Z,189.15
2018-01-07T03:52:45.975Z,137.75
2018-01-07T03:55:13.464Z,218.85
2018-01-07T03:57:40.957Z,121.35
2018-01-07T04:00:08.437Z,233.30
2018-01-07T04:02:35.927Z,217.05
2018-01-07T04:05:03.432Z,451.60
2018-01-07T04:07:30.919Z,262.42
2018-01-07T04:09:58.393Z,302.95
2018-01-07T04:12:25.897Z,266.15
2018-01-07T04:14:53.384Z,199.12
2018-01-07T04:17:20.875Z,265.67
2018-01-07T04:19:48.375Z,407.65
2018-01-07T04:22:15.863Z,216.68
2018-01-07T04:24:43.328Z,255.95
2018-01-07T04:27:10.822Z,398.67
2018-01-07T04:29:38.289Z,282.30
2018-01-07T04:32:05.783Z,117.10
2018-01-07T04:34:33.265Z,179.32
2018-01-07T04:37:00.737Z,168.32
2018-01-07T04:39:28.204Z,243.48
2018-01-07T04:41:55.716Z,151.15
2018-01-07T04:44:23.206Z,104.87
2018-01-07T04:46:50.704Z,97.75
2018-01-07T04:49:18.194Z,76.30
2018-01-07T04:51:45.662Z,104.07
2018-01-07T04:54:13.147Z,130.80
2018-01-07T04:56:40.648Z,94.65
2018-01-07T04:59:08.117Z,193.60
2018-01-07T05:01:35.588Z,181.37
2018-01-07T05:04:03.076Z,363.67
2018-01-07T05:06:30.549Z,170.18
2018-01-07T05:08:58.035Z,133.02
2018-01-07T05:11:25.529Z,268.37
2018-01-07T05:13:53.009Z,314.17
2018-01-07T05:16:20.508Z,217.60
2018-01-07T05:18:48.001Z,322.63
2018-01-07T05:21:15.490Z,231.07
2018-01-07T05:23:42.975Z,206.13
2018-01-07T05:26:10.479Z,140.35
2018-01-07T05:28:37.950Z,296.17
2018-01-07T05:31:05.420Z,297.42
2018-01-07T05:33:32.924Z,176.07
2018-01-07T05:36:00.392Z,253.37
2018-01-07T05:38:27.852Z,320.40
2018-01-07T05:40:55.336Z,160.45
2018-01-07T05:43:22.836Z,296.65
2018-01-07T05:45:50.336Z,187.65
2018-01-07T05:48:17.833Z,248.95
2018-01-07T05:50:45.301Z,295.77
2018-01-07T05:53:12.792Z,197.30
2018-01-07T05:55:40.280Z,147.85
2018-01-07T05:58:07.749Z,250.20
2018-01-07T06:00:35.227Z,173.48
2018-01-07T06:03:02.739Z,311.85
2018-01-07T06:05:30.223Z,235.25
2018-01-07T06:07:57.711Z,194.77
2018-01-07T06:10:25.197Z,255.20
2018-01-07T06:12:52.688Z,248.48
2018-01-07T06:15:20.160Z,248.57
2018-01-07T06:17:47.644Z,141.10
2018-01-07T06:20:15.114Z,247.27
2018-01-07T06:22:42.589Z,335.02
2018-01-07T06:25:10.087Z,97.43
2018-01-07T06:27:37.570Z,251.50
2018-01-07T06:30:05.059Z,265.95
2018-01-07T06:32:32.544Z,242.80
2018-01-07T06:35:00.012Z,185.95
2018-01-07T06:37:27.476Z,397.52
2018-01-07T06:39:54.993Z,338.83
2018-01-07T06:42:22.474Z,314.88
2018-01-07T06:44:49.950Z,358.85
2018-01-07T06:47:17.443Z,236.50
2018-01-07T06:49:44.917Z,299.48
2018-01-07T06:52:12.404Z,315.70
2018-01-07T06:54:39.899Z,270.55
2018-01-07T06:57:07.388Z,345.27
2018-01-07T06:59:34.831Z,374.62
2018-01-07T07:02:02.367Z,84.72
2018-01-07T07:04:29.841Z,332.08
2018-01-07T07:06:57.328Z,376.37
2018-01-07T07:09:24.817Z,256.50
2018-01-07T07:11:52.311Z,368.83
2018-01-07T07:14:19.801Z,210.82
2018-01-07T07:16:47.294Z,187.75
2018-01-07T07:19:14.772Z,338.65
2018-01-07T07:21:42.228Z,265.95
2018-01-07T07:24:09.717Z,336.30
2018-01-07T07:26:37.220Z,298.35
2018-01-07T07:29:04.707Z,206.82
2018-01-07T07:31:32.215Z,169.45
2018-01-07T07:33:59.680Z,149.85
2018-01-07T07:36:27.163Z,235.48
2018-01-07T07:38:54.644Z,122.70
2018-01-07T07:41:22.113Z,190.85
2018-01-07T07:43:49.605Z,84.20
2018-01-07T07:46:17.111Z,77.47
2018-01-07T07:48:44.595Z,66.72
2018-01-07T07:51:12.065Z,69.12
2018-01-07T07:53:39.553Z,78.25
2018-01-07T07:56:07.044Z,77.10
2018-01-07T07:58:34.513Z,75.75
2018-01-07T08:01:02.013Z,62.70
2018-01-07T08:03:29.499Z,87.20
2018-01-07T08:05:56.921Z,75.18
2018-01-07T08:08:24.438Z,82.20
2018-01-07T08:10:51.901Z,67.70
2018-01-07T08:13:19.392Z,75.32
2018-01-07T08:15:46.889Z,71.10
2018-01-07T08:18:14.361Z,75.20
2018-01-07T08:20:41.824Z,81.20
2018-01-07T08:23:09.323Z,90.68
2018-01-07T08:25:36.789Z,91.53
2018-01-07T08:28:04.257Z,106.80
2018-01-07T08:30:31.732Z,83.85
2018-01-07T08:32:59.212Z,80.00
2018-01-07T08:35:26.685Z,76.90
2018-01-07T08:37:54.156Z,81.80
2018-01-07T08:40:21.648Z,84.70
2018-01-07T08:42:49.111Z,88.55
2018-01-07T08:45:16.619Z,89.95
2018-01-07T08:47:44.094Z,91.37
2018-01-07T08:50:11.562Z,97.45
2018-01-07T08:52:39.051Z,80.97
2018-01-07T08:55:06.517Z,86.10
2018-01-07T08:57:33.999Z,99.35
2018-01-07T09:00:01.504Z,103.28
2018-01-07T09:02:28.991Z,86.07
2018-01-07T09:04:56.469Z,108.95
2018-01-07T09:07:23.961Z,99.03
2018-01-07T09:09:51.455Z,101.80
2018-01-07T09:12:18.947Z,103.68
2018-01-07T09:14:46.449Z,98.03
2018-01-07T09:17:13.916Z,115.95
2018-01-07T09:19:41.391Z,93.80
2018-01-07T09:22:08.902Z,106.40
2018-01-07T09:24:36.388Z,111.30
2018-01-07T09:27:03.862Z,86.47
2018-01-07T09:29:31.350Z,106.60
2018-01-07T09:31:58.838Z,93.68
2018-01-07T09:34:26.305Z,106.45
2018-01-07T09:36:53.820Z,111.30
2018-01-07T09:39:21.302Z,80.15
2018-01-07T09:41:48.782Z,98.10
2018-01-07T09:44:16.285Z,107.10
2018-01-07T09:46:44.733Z,116.57
2018-01-07T09:49:12.201Z,101.47
2018-01-07T09:51:39.696Z,101.35
2018-01-07T09:54:07.152Z,82.30
2018-01-07T09:56:34.648Z,79.65
2018-01-07T09:59:02.154Z,85.15
2018-01-07T10:01:29.658Z,76.22
2018-01-07T10:03:57.152Z,81.40
2018-01-07T10:06:24.636Z,81.97
2018-01-07T10:08:52.106Z,81.63
2018-01-07T10:11:19.690Z,67.75
2018-01-07T10:13:47.165Z,71.80
2018-01-07T10:16:14.634Z,82.00
2018-01-07T10:18:42.206Z,81.32
2018-01-07T10:21:09.944Z,77.87
2018-01-07T10:23:37.433Z,83.17
2018-01-07T10:26:04.892Z,74.05
2018-01-07T10:28:32.376Z,76.07
2018-01-07T10:30:59.927Z,86.63
2018-01-07T10:33:27.452Z,72.97
2018-01-07T10:35:54.969Z,80.07
2018-01-07T10:38:22.434Z,78.27
2018-01-07T10:40:49.912Z,86.97
2018-01-07T10:43:17.385Z,84.30
2018-01-07T10:45:44.876Z,77.32
2018-01-07T10:48:12.359Z,81.00
2018-01-07T10:50:39.849Z,82.57
2018-01-07T10:53:07.325Z,83.47
2018-01-07T10:55:34.845Z,79.22
2018-01-07T10:58:02.323Z,81.07
2018-01-07T11:13:51.468Z,64.22
2018-01-07T11:16:18.922Z,71.03
2018-01-07T11:18:46.407Z,66.87
2018-01-07T11:21:13.988Z,71.55
2018-01-07T11:23:41.467Z,60.28
2018-01-07T11:26:08.951Z,58.30
2018-01-07T11:28:36.465Z,52.75
2018-01-07T11:31:03.949Z,52.10
2018-01-07T11:33:31.417Z,54.90
2018-01-07T11:35:58.901Z,60.10
2018-01-07T11:38:26.377Z,57.17
2018-01-07T11:40:53.875Z,54.10
2018-01-07T11:43:21.391Z,52.60
2018-01-07T11:45:48.872Z,58.00
2018-01-07T11:48:16.364Z,55.70
2018-01-07T11:50:43.832Z,57.00
2018-01-07T11:53:11.304Z,62.10
2018-01-07T11:55:38.820Z,58.83
2018-01-07T11:58:06.328Z,74.37
2018-01-07T12:00:34.538Z,63.13
2018-01-07T12:03:02.164Z,72.55
2018-01-07T12:05:29.656Z,57.80
2018-01-07T12:07:57.127Z,63.97
2018-01-07T12:10:24.612Z,66.57
2018-01-07T12:12:52.070Z,59.97
2018-01-07T12:15:20.633Z,61.97
2018-01-07T12:17:48.105Z,64.03
2018-01-07T12:20:15.592Z,66.70
2018-01-07T12:22:43.199Z,59.55
2018-01-07T12:25:10.693Z,72.00
2018-01-07T12:27:38.181Z,69.47
2018-01-07T12:30:06.564Z,72.80
2018-01-07T12:32:34.071Z,73.25
2018-01-07T12:35:01.540Z,82.50
2018-01-07T12:37:29.001Z,71.20
2018-01-07T12:39:56.494Z,69.67
2018-01-07T12:42:23.970Z,71.63
2018-01-07T12:44:51.439Z,72.43
2018-01-07T12:47:18.932Z,76.50
2018-01-07T12:49:46.401Z,87.00
2018-01-07T12:52:13.865Z,77.63
2018-01-07T12:54:41.388Z,69.70
2018-01-07T12:57:08.864Z,76.73
2018-01-07T12:59:36.333Z,70.20
2018-01-07T13:02:03.804Z,69.67
2018-01-07T13:04:31.283Z,74.85
2018-01-07T13:06:58.800Z,65.67
2018-01-07T13:09:26.295Z,75.73
2018-01-07T13:11:53.761Z,76.13
2018-01-07T13:14:21.257Z,78.03
2018-01-07T13:16:48.722Z,79.13
2018-01-07T13:19:16.408Z,74.57
2018-01-07T13:21:43.849Z,71.50
2018-01-07T13:24:11.348Z,76.20
2018-01-07T13:26:38.860Z,78.13
2018-01-07T13:29:06.340Z,74.77
2018-01-07T13:31:33.833Z,74.83
2018-01-07T13:34:01.297Z,80.73
2018-01-07T13:36:28.780Z,68.97
2018-01-07T13:38:56.272Z,70.50
2018-01-07T13:41:23.781Z,83.50
2018-01-07T13:43:51.232Z,78.30
2018-01-07T13:46:18.835Z,69.73
2018-01-07T13:48:46.365Z,68.80
2018-01-07T13:51:13.823Z,73.40
2018-01-07T13:53:41.306Z,67.90
2018-01-07T13:56:08.787Z,72.70
2018-01-07T13:58:36.254Z,70.65
2018-01-07T14:01:03.726Z,70.83
2018-01-07T14:03:31.194Z,69.90
2018-01-07T14:05:58.652Z,63.90
2018-01-07T14:08:26.129Z,67.50
2018-01-07T14:10:53.601Z,60.97
2018-01-07T14:13:21.077Z,69.07
2018-01-07T14:15:48.588Z,58.92
2018-01-07T14:18:16.108Z,65.18
2018-01-07T14:20:43.590Z,58.58
2018-01-07T14:23:11.057Z,62.17
2018-01-07T14:25:38.564Z,67.68
2018-01-07T14:28:06.056Z,65.65
2018-01-07T14:30:33.534Z,65.60
2018-01-07T14:33:01.002Z,72.13
2018-01-07T14:35:28.479Z,59.80
2018-01-07T14:37:55.947Z,61.47
2018-01-07T14:40:23.415Z,72.27
2018-01-07T14:42:50.881Z,77.90
2018-01-07T14:45:18.340Z,66.80
2018-01-07T14:47:45.852Z,65.85
2018-01-07T14:50:13.325Z,68.13
2018-01-07T14:52:40.794Z,63.93
2018-01-07T14:55:08.280Z,62.23
2018-01-07T14:57:35.757Z,63.83
2018-01-07T15:00:03.252Z,62.93
2018-01-07T15:02:30.729Z,71.50
2018-01-07T15:04:58.206Z,57.35
2018-01-07T15:07:25.695Z,60.05
2018-01-07T15:09:53.173Z,67.40
2018-01-07T15:12:20.625Z,67.23
2018-01-07T15:14:48.096Z,74.50
2018-01-07T15:17:15.565Z,65.17
2018-01-07T15:19:43.021Z,64.70
2018-01-07T15:22:10.503Z,73.00
2018-01-07T15:24:37.995Z,79.93
2018-01-07T15:27:05.464Z,68.50
2018-01-07T15:29:32.946Z,64.85
2018-01-07T15:32:00.417Z,72.55
2018-01-07T15:34:27.876Z,72.05
2018-01-07T15:36:55.340Z,63.67
2018-01-07T15:39:22.834Z,62.50
2018-01-07T15:41:50.306Z,65.37
2018-01-07T15:44:17.781Z,63.83
2018-01-07T15:46:45.265Z,54.40
2018-01-07T15:49:12.736Z,63.37
2018-01-07T15:51:40.207Z,81.53
2018-01-07T15:54:07.673Z,64.60
2018-01-07T15:56:35.154Z,75.72
2018-01-07T15:59:02.648Z,62.90
2018-01-07T16:01:30.312Z,64.43
2018-01-07T16:03:57.778Z,68.03
2018-01-07T16:06:25.260Z,70.95
2018-01-07T16:08:52.770Z,78.87
2018-01-07T16:11:20.264Z,65.50
2018-01-07T16:13:47.747Z,71.28
2018-01-07T16:16:15.205Z,59.35
2018-01-07T16:18:42.697Z,57.53
2018-01-07T16:21:10.178Z,48.50
2018-01-07T16:23:37.632Z,46.40
2018-01-07T16:26:05.126Z,55.78
2018-01-07T16:28:32.599Z,51.28
2018-01-07T16:31:00.082Z,50.00
2018-01-07T16:33:27.580Z,50.22
2018-01-07T16:35:55.055Z,45.43
2018-01-07T16:38:22.547Z,43.25
2018-01-07T16:40:50.053Z,45.80
2018-01-07T16:43:17.500Z,42.60
2018-01-07T16:45:44.974Z,40.83
2018-01-07T16:48:12.459Z,40.40
2018-01-07T16:50:39.921Z,42.53
2018-01-07T16:53:07.391Z,41.87
2018-01-07T16:55:34.864Z,40.78
2018-01-07T16:58:02.336Z,44.07
2018-01-07T17:00:29.798Z,41.13
2018-01-07T17:02:57.325Z,39.15
2018-01-07T17:05:24.785Z,38.57
2018-01-07T17:07:52.263Z,36.20
2018-01-07T17:10:19.759Z,40.70
2018-01-07T17:12:47.243Z,40.92
2018-01-07T17:15:14.712Z,32.13
2018-01-07T17:17:42.203Z,37.13
2018-01-07T17:20:09.683Z,38.47
2018-01-07T17:22:37.141Z,32.80
2018-01-07T17:25:04.612Z,37.13
2018-01-07T17:27:32.083Z,30.90
2018-01-07T17:29:59.571Z,36.53
2018-01-07T17:32:27.055Z,35.03
2018-01-07T17:34:54.538Z,33.03
2018-01-07T17:37:22.006Z,32.90
2018-01-07T17:39:49.512Z,29.58
2018-01-07T17:42:16.992Z,28.90
2018-01-07T17:44:44.456Z,35.90
2018-01-07T17:47:11.951Z,28.73
2018-01-07T17:49:39.404Z,31.03
2018-01-07T17:52:06.857Z,24.33
2018-01-07T17:54:34.358Z,31.42
2018-01-07T17:57:01.817Z,30.43
2018-01-07T17:59:29.290Z,27.50
2018-01-07T18:01:56.760Z,30.55
2018-01-07T18:04:24.239Z,26.05
2018-01-07T18:06:51.721Z,28.20
2018-01-07T18:09:19.201Z,26.87
2018-01-07T18:11:46.652Z,28.40
2018-01-07T18:14:14.122Z,26.10
2018-01-07T18:16:41.584Z,27.03
2018-01-07T18:19:09.032Z,27.23
2018-01-07T18:21:36.511Z,30.88
2018-01-07T18:24:03.968Z,26.93
2018-01-07T18:26:31.431Z,28.73
2018-01-07T18:28:58.897Z,33.47
2018-01-07T18:31:26.356Z,32.67
2018-01-07T18:33:53.837Z,29.98
2018-01-07T18:36:21.320Z,36.50
2018-01-07T18:38:48.873Z,33.67
2018-01-07T18:41:16.337Z,32.88
2018-01-07T18:43:43.830Z,39.60
2018-01-07T18:46:11.322Z,38.75
2018-01-07T18:48:38.789Z,32.80
2018-01-07T18:51:06.271Z,31.77
2018-01-07T18:53:33.760Z,39.15
2018-01-07T18:56:01.228Z,41.60
2018-01-07T18:58:28.696Z,36.57
2018-01-07T19:00:56.165Z,41.78
2018-01-07T19:03:23.641Z,39.65
2018-01-07T19:05:51.132Z,37.97
2018-01-07T19:08:18.617Z,39.90
2018-01-07T19:10:46.068Z,37.00
2018-01-07T19:13:13.563Z,40.28
2018-01-07T19:15:41.028Z,41.67
2018-01-07T19:18:08.497Z,41.08
2018-01-07T19:20:35.985Z,49.20
2018-01-07T19:23:03.456Z,45.35
2018-01-07T19:25:30.931Z,39.17
2018-01-07T19:27:58.422Z,43.75
2018-01-07T19:30:25.899Z,41.13
2018-01-07T19:32:53.363Z,45.33
2018-01-07T19:35:20.845Z,49.88
2018-01-07T19:37:48.320Z,44.65
2018-01-07T19:40:15.808Z,49.00
2018-01-07T19:42:43.307Z,53.83
2018-01-07T19:45:10.826Z,43.72
2018-01-07T19:47:38.327Z,44.55
2018-01-07T19:50:05.831Z,44.17
2018-01-07T19:52:33.301Z,51.03
2018-01-07T19:55:00.788Z,44.28
2018-01-07T19:57:28.279Z,52.53
2018-01-07T19:59:55.749Z,47.58
2018-01-07T20:02:23.225Z,50.10
2018-01-07T20:04:50.756Z,47.90
2018-01-07T20:07:18.224Z,51.30
2018-01-07T20:09:45.703Z,46.58
2018-01-07T20:12:13.179Z,46.77
2018-01-07T20:14:40.683Z,44.80
2018-01-07T20:17:08.165Z,47.42
2018-01-07T20:19:35.669Z,44.30
2018-01-07T20:22:03.145Z,47.58
2018-01-07T20:24:30.614Z,39.70
2018-01-07T20:26:58.125Z,43.35
2018-01-07T20:29:25.826Z,44.30
2018-01-07T20:31:53.333Z,42.20
2018-01-07T20:34:20.829Z,41.35
2018-01-07T20:36:48.328Z,42.20
2018-01-07T20:39:15.812Z,42.97
2018-01-07T20:41:43.302Z,43.03
2018-01-07T20:44:10.762Z,43.27
2018-01-07T20:46:38.265Z,52.65
2018-01-07T20:49:05.795Z,43.35
2018-01-07T20:51:33.267Z,48.05
2018-01-07T20:54:00.751Z,48.70
2018-01-07T20:56:28.234Z,40.90
2018-01-07T20:58:55.725Z,45.97
2018-01-07T21:01:23.191Z,45.83
2018-01-07T21:03:50.677Z,44.80
2018-01-07T21:06:18.151Z,42.05
2018-01-07T21:08:45.648Z,39.43
2018-01-07T21:11:13.120Z,48.00
2018-01-07T21:13:40.605Z,42.13
2018-01-07T21:16:08.077Z,41.60
2018-01-07T21:18:35.556Z,43.03
2018-01-07T21:21:03.048Z,39.70
2018-01-07T21:23:30.513Z,46.37
2018-01-07T21:25:57.977Z,42.67
2018-01-07T21:28:25.454Z,39.33
2018-01-07T21:30:52.921Z,44.50
2018-01-07T21:33:20.371Z,35.87
2018-01-07T21:35:47.859Z,40.78
2018-01-07T21:38:15.326Z,43.20
2018-01-07T21:40:42.794Z,42.97
2018-01-07T21:43:10.290Z,38.38
2018-01-07T21:45:37.774Z,42.22
2018-01-07T21:48:05.244Z,40.50
2018-01-07T21:50:32.743Z,42.35
2018-01-07T21:53:00.224Z,39.10
2018-01-07T21:55:27.681Z,43.72
2018-01-07T21:57:55.172Z,37.38
2018-01-07T22:00:43.352Z,38.13
2018-01-07T22:03:22.548Z,41.67
2018-01-07T22:05:54.812Z,43.30
2018-01-07T22:08:22.298Z,43.60
2018-01-07T22:10:49.787Z,45.20
2018-01-07T22:13:17.288Z,45.67
2018-01-07T22:15:44.835Z,42.88
2018-01-07T22:18:12.292Z,46.33
2018-01-07T22:20:39.759Z,41.67
2018-01-07T22:23:07.212Z,39.03
2018-01-07T22:25:34.699Z,45.17
2018-01-07T22:28:02.205Z,41.92
2018-01-07T22:30:29.662Z,45.67
2018-01-07T22:32:57.135Z,44.13
2018-01-07T22:35:24.605Z,42.60
2018-01-07T22:37:52.065Z,42.23
2018-01-07T22:40:19.529Z,41.20
2018-01-07T22:42:47.031Z,42.53
2018-01-07T22:45:14.492Z,47.10
2018-01-07T22:47:48.161Z,40.40
2018-01-07T22:50:15.617Z,42.27
2018-01-07T22:52:43.100Z,46.13
2018-01-07T22:55:10.569Z,40.07
2018-01-07T22:57:38.030Z,45.70
2018-01-07T23:00:05.519Z,42.95
2018-01-07T23:02:33.029Z,48.07
2018-01-07T23:05:00.519Z,54.65
2018-01-07T23:07:27.987Z,41.73
2018-01-07T23:09:55.467Z,48.37
2018-01-07T23:12:22.943Z,49.37
2018-01-07T23:14:50.420Z,46.37
2018-01-07T23:17:17.911Z,50.27
2018-01-07T23:19:45.372Z,48.83
2018-01-07T23:22:12.853Z,47.60
2018-01-07T23:24:40.343Z,47.77
2018-01-07T23:27:07.793Z,44.20
2018-01-07T23:29:35.263Z,49.97
2018-01-07T23:32:02.752Z,55.43
2018-01-07T23:34:30.216Z,49.70
2018-01-07T23:36:57.687Z,43.93
2018-01-07T23:39:25.153Z,45.17
2018-01-07T23:41:52.638Z,50.92
2018-01-07T23:44:20.108Z,44.30
2018-01-07T23:46:47.584Z,45.13
2018-01-07T23:49:15.068Z,52.27
2018-01-07T23:51:42.537Z,50.33
2018-01-07T23:54:10.009Z,53.17
2018-01-07T23:56:37.472Z,60.88
2018-01-07T23:59:04.948Z,54.75
